Time;durP1;ratioP1;P1;durP2;ratioP2;P2;SDS_P1;SDS_P2;PMS_P1;PMS_P2;Temp;Humidity;BMP_temperature;BMP_pressure;BME280_temperature;BME280_humidity;BME280_pressure;Samples;Min_cycle;Max_cycle;Signal;HPM_P1;HPM_P2
2023/04/20 00:00:56;;;;;;;10.18;9.18;;;3.30;99.90;;;;;;5000241;28;20504;-61
2023/04/20 00:03:21;;;;;;;10.45;9.35;;;3.30;99.90;;;;;;5007239;28;20045;-60
2023/04/20 00:05:48;;;;;;;9.50;8.60;;;3.20;99.90;;;;;;5000361;28;20030;-59
2023/04/20 00:08:16;;;;;;;10.18;9.10;;;3.20;99.90;;;;;;4998962;28;20034;-61
2023/04/20 00:10:43;;;;;;;10.18;9.15;;;3.20;99.90;;;;;;4997810;28;20112;-60
2023/04/20 00:13:08;;;;;;;14.68;10.07;;;3.20;99.90;;;;;;4998172;28;20038;-62
2023/04/20 00:15:34;;;;;;;14.60;9.68;;;3.20;99.90;;;;;;5002050;28;20084;-60
2023/04/20 00:18:00;;;;;;;11.32;9.90;;;3.20;99.90;;;;;;4999878;28;20410;-60
2023/04/20 00:20:26;;;;;;;9.43;8.52;;;3.20;99.90;;;;;;5001690;28;20027;-62
2023/04/20 00:22:52;;;;;;;10.95;8.23;;;3.20;99.90;;;;;;4998671;28;20027;-60
2023/04/20 00:25:17;;;;;;;10.52;9.43;;;3.20;99.90;;;;;;4998926;28;20033;-63
2023/04/20 00:27:43;;;;;;;8.50;7.68;;;3.20;99.90;;;;;;4997534;28;20077;-59
2023/04/20 00:30:09;;;;;;;13.95;7.65;;;3.00;99.90;;;;;;4998521;28;20031;-62
2023/04/20 00:32:35;;;;;;;8.43;7.57;;;2.90;99.90;;;;;;5000294;28;20611;-62
2023/04/20 00:35:01;;;;;;;11.80;8.63;;;2.80;99.90;;;;;;4996454;28;20042;-63
2023/04/20 00:37:27;;;;;;;8.85;7.95;;;2.80;99.90;;;;;;4997666;28;20226;-60
2023/04/20 00:39:54;;;;;;;11.13;9.18;;;2.80;99.90;;;;;;4998177;28;20121;-60
2023/04/20 00:42:19;;;;;;;10.05;8.43;;;2.90;99.90;;;;;;4994608;28;20783;-62
2023/04/20 00:44:45;;;;;;;10.00;9.02;;;2.90;99.90;;;;;;5000416;28;20034;-60
2023/04/20 00:47:10;;;;;;;9.82;8.90;;;3.00;99.90;;;;;;4998718;28;20034;-60
2023/04/20 00:49:36;;;;;;;9.25;8.35;;;3.00;99.90;;;;;;4997671;28;20407;-60
2023/04/20 00:52:02;;;;;;;11.60;9.07;;;3.10;99.90;;;;;;4998749;28;20026;-61
2023/04/20 00:54:29;;;;;;;9.95;8.95;;;3.10;99.90;;;;;;4997091;28;20022;-59
2023/04/20 00:56:56;;;;;;;10.07;8.18;;;3.20;99.90;;;;;;4999002;28;20158;-62
2023/04/20 00:59:22;;;;;;;12.90;8.85;;;3.20;99.90;;;;;;5000147;28;20383;-59
2023/04/20 01:01:48;;;;;;;10.30;8.95;;;3.20;99.90;;;;;;4997317;28;20032;-62
2023/04/20 01:04:15;;;;;;;10.50;8.80;;;3.20;99.90;;;;;;4998337;28;20037;-60
2023/04/20 01:06:41;;;;;;;10.30;8.95;;;3.20;99.90;;;;;;4997133;28;20084;-61
2023/04/20 01:09:06;;;;;;;12.25;10.25;;;3.20;99.90;;;;;;4999385;28;20030;-59
2023/04/20 01:11:32;;;;;;;14.68;9.25;;;3.20;99.90;;;;;;4999264;28;20025;-61
2023/04/20 01:13:58;;;;;;;10.57;9.48;;;3.20;99.90;;;;;;4996659;28;20057;-59
2023/04/20 01:16:23;;;;;;;10.55;9.05;;;3.20;99.90;;;;;;4999984;28;20117;-66
2023/04/20 01:18:50;;;;;;;10.70;9.65;;;3.20;99.90;;;;;;4999246;28;20030;-61
2023/04/20 01:21:18;;;;;;;11.90;10.70;;;3.20;99.90;;;;;;5004776;28;20037;-59
2023/04/20 01:23:44;;;;;;;10.82;9.82;;;3.20;99.90;;;;;;4999853;28;20036;-60
2023/04/20 01:26:13;;;;;;;14.23;10.68;;;3.20;99.90;;;;;;4998118;28;20034;-63
2023/04/20 01:28:39;;;;;;;11.90;10.13;;;3.20;99.90;;;;;;4999917;28;20014;-59
2023/04/20 01:31:06;;;;;;;13.18;11.88;;;3.30;99.90;;;;;;4997048;28;20032;-61
2023/04/20 01:33:33;;;;;;;11.50;10.32;;;3.20;99.90;;;;;;4996305;28;20038;-60
2023/04/20 01:35:59;;;;;;;12.70;10.65;;;3.30;99.90;;;;;;4998171;28;20347;-63
2023/04/20 01:38:25;;;;;;;11.00;10.00;;;3.30;99.90;;;;;;4999658;28;20569;-60
2023/04/20 01:40:52;;;;;;;17.98;13.45;;;3.30;99.90;;;;;;4998256;28;20129;-59
2023/04/20 01:43:18;;;;;;;12.45;10.77;;;3.40;99.90;;;;;;4996967;28;20512;-60
2023/04/20 01:45:44;;;;;;;15.43;12.20;;;3.50;99.90;;;;;;4995569;28;20022;-59
2023/04/20 01:48:10;;;;;;;12.45;11.25;;;3.60;99.90;;;;;;4997779;28;20394;-61
2023/04/20 01:50:35;;;;;;;16.50;11.73;;;3.70;99.90;;;;;;4996402;28;20030;-60
2023/04/20 01:53:01;;;;;;;22.65;13.85;;;3.80;99.90;;;;;;5000752;28;20042;-59
2023/04/20 01:55:27;;;;;;;12.90;9.90;;;3.90;99.90;;;;;;4997526;28;20144;-62
2023/04/20 01:57:52;;;;;;;11.55;10.45;;;3.90;99.90;;;;;;4999017;28;20437;-63
2023/04/20 02:00:18;;;;;;;12.73;11.02;;;3.90;99.90;;;;;;4997334;28;20144;-59
2023/04/20 02:02:44;;;;;;;12.90;11.35;;;4.00;99.90;;;;;;4996913;28;20044;-60
2023/04/20 02:05:10;;;;;;;12.88;11.45;;;4.00;99.90;;;;;;4999931;28;20026;-61
2023/04/20 02:07:35;;;;;;;16.25;12.70;;;4.00;99.90;;;;;;5000654;28;20015;-62
2023/04/20 02:10:02;;;;;;;14.20;11.57;;;4.10;99.90;;;;;;4999322;28;20037;-60
2023/04/20 02:12:28;;;;;;;14.50;12.90;;;4.10;99.90;;;;;;4995776;28;20026;-61
2023/04/20 02:14:54;;;;;;;15.75;12.63;;;4.10;99.90;;;;;;4997031;28;20057;-60
2023/04/20 02:17:19;;;;;;;16.88;13.90;;;4.10;99.90;;;;;;4996872;28;20054;-60
2023/04/20 02:19:45;;;;;;;17.02;14.70;;;4.10;99.90;;;;;;4997552;28;20485;-62
2023/04/20 02:22:11;;;;;;;17.02;13.25;;;4.10;99.90;;;;;;4998939;28;20030;-60
2023/04/20 02:24:37;;;;;;;11.27;10.15;;;4.10;99.90;;;;;;4997859;28;20026;-59
2023/04/20 02:27:03;;;;;;;12.77;10.18;;;3.90;99.90;;;;;;4998411;28;20061;-62
2023/04/20 02:29:28;;;;;;;13.65;10.20;;;3.80;99.90;;;;;;4996359;28;20022;-63
2023/04/20 02:31:54;;;;;;;10.43;9.43;;;3.70;99.90;;;;;;4997728;28;20499;-59
2023/04/20 02:34:20;;;;;;;11.93;10.52;;;3.60;99.90;;;;;;4999910;28;20030;-60
2023/04/20 02:36:46;;;;;;;10.65;9.60;;;3.60;99.90;;;;;;4996587;28;20713;-61
2023/04/20 02:39:12;;;;;;;12.70;11.50;;;3.50;99.90;;;;;;4994693;28;20429;-59
2023/04/20 02:41:37;;;;;;;14.82;11.57;;;3.50;99.90;;;;;;4996579;28;20061;-60
2023/04/20 02:44:03;;;;;;;16.02;12.27;;;3.50;99.90;;;;;;4997060;28;20407;-61
2023/04/20 02:46:28;;;;;;;14.18;12.20;;;3.50;99.90;;;;;;4997465;28;20045;-66
2023/04/20 02:48:55;;;;;;;12.40;10.95;;;3.50;99.90;;;;;;4998278;28;20539;-60
2023/04/20 02:51:21;;;;;;;12.30;10.75;;;3.40;99.90;;;;;;4997163;28;20030;-59
2023/04/20 02:53:46;;;;;;;15.20;11.77;;;3.30;99.90;;;;;;4995841;28;20034;-60
2023/04/20 02:56:12;;;;;;;16.10;11.57;;;3.30;99.90;;;;;;4996046;28;20491;-60
2023/04/20 02:58:37;;;;;;;11.77;10.57;;;3.20;99.90;;;;;;5001010;28;20057;-62
2023/04/20 03:01:03;;;;;;;12.98;11.77;;;3.20;99.90;;;;;;4996658;28;20030;-62
2023/04/20 03:03:29;;;;;;;15.70;12.30;;;3.10;99.90;;;;;;4996472;28;20054;-61
2023/04/20 03:05:55;;;;;;;21.48;13.50;;;3.10;99.90;;;;;;4994741;28;20122;-61
2023/04/20 03:08:22;;;;;;;23.17;12.38;;;3.10;99.90;;;;;;4998522;28;20034;-59
2023/04/20 03:10:47;;;;;;;16.17;11.70;;;3.00;99.90;;;;;;4994494;28;20546;-59
2023/04/20 03:13:13;;;;;;;14.88;12.07;;;3.00;99.90;;;;;;4997624;28;20117;-59
2023/04/20 03:15:39;;;;;;;13.82;10.90;;;2.90;99.90;;;;;;5003696;28;20113;-60
2023/04/20 03:18:05;;;;;;;14.18;10.98;;;2.90;99.90;;;;;;4996142;28;20541;-62
2023/04/20 03:20:31;;;;;;;12.90;11.32;;;2.80;99.90;;;;;;5002858;28;20419;-61
2023/04/20 03:22:57;;;;;;;15.18;13.45;;;2.70;99.90;;;;;;4993484;28;20037;-60
2023/04/20 03:25:22;;;;;;;19.02;13.25;;;2.70;99.90;;;;;;4999432;28;20026;-61
2023/04/20 03:27:48;;;;;;;16.52;13.35;;;2.70;99.90;;;;;;4996581;28;20462;-61
2023/04/20 03:30:14;;;;;;;16.70;14.23;;;2.60;99.90;;;;;;4996917;28;20101;-59
2023/04/20 03:32:40;;;;;;;15.25;13.20;;;2.60;99.90;;;;;;4998155;28;20030;-59
2023/04/20 03:35:07;;;;;;;16.58;14.40;;;2.50;99.90;;;;;;4996467;28;20034;-59
2023/04/20 03:37:33;;;;;;;15.10;13.45;;;2.50;99.90;;;;;;4996564;28;20058;-64
2023/04/20 03:39:59;;;;;;;16.77;14.07;;;2.40;99.90;;;;;;4998211;28;20045;-62
2023/04/20 03:42:24;;;;;;;15.20;13.52;;;2.30;99.90;;;;;;4998051;28;20058;-61
2023/04/20 03:44:50;;;;;;;14.45;12.00;;;2.20;99.90;;;;;;4996718;28;20034;-61
2023/04/20 03:47:16;;;;;;;19.77;13.55;;;2.20;99.90;;;;;;4997776;28;20030;-59
2023/04/20 03:49:42;;;;;;;16.67;13.88;;;2.00;99.90;;;;;;4996779;28;20090;-62
2023/04/20 03:52:07;;;;;;;15.35;13.00;;;2.00;99.90;;;;;;4999147;28;20037;-63
2023/04/20 03:54:33;;;;;;;16.55;13.23;;;1.90;99.90;;;;;;4998097;28;20033;-62
2023/04/20 03:56:59;;;;;;;18.23;13.82;;;1.80;99.90;;;;;;4997045;28;20034;-60
2023/04/20 03:59:24;;;;;;;21.38;14.20;;;1.70;99.90;;;;;;4994881;28;20030;-60
2023/04/20 04:01:50;;;;;;;16.15;14.57;;;1.70;99.90;;;;;;4992337;28;20027;-61
2023/04/20 04:04:16;;;;;;;19.80;12.57;;;1.70;99.90;;;;;;5001067;28;20038;-61
2023/04/20 04:06:42;;;;;;;16.95;13.38;;;1.60;99.90;;;;;;4999040;28;20332;-61
2023/04/20 04:09:08;;;;;;;18.30;14.15;;;1.60;99.90;;;;;;4999332;28;20049;-62
2023/04/20 04:11:33;;;;;;;20.20;14.13;;;1.60;99.90;;;;;;4999103;28;20058;-60
2023/04/20 04:13:59;;;;;;;14.98;13.52;;;1.50;99.90;;;;;;4997857;28;20030;-61
2023/04/20 04:16:25;;;;;;;19.63;13.77;;;1.50;99.90;;;;;;4998727;28;20753;-61
2023/04/20 04:18:50;;;;;;;17.42;14.20;;;1.40;99.90;;;;;;4998898;28;20039;-62
2023/04/20 04:21:16;;;;;;;15.50;13.90;;;1.40;99.90;;;;;;4996446;28;20026;-60
2023/04/20 04:23:42;;;;;;;17.80;13.95;;;1.40;99.90;;;;;;4995523;28;20429;-62
2023/04/20 04:26:08;;;;;;;14.98;12.40;;;1.30;99.90;;;;;;4999595;28;20482;-60
2023/04/20 04:28:34;;;;;;;14.98;13.15;;;1.30;99.90;;;;;;4998552;28;20018;-59
2023/04/20 04:31:00;;;;;;;15.57;12.70;;;1.30;99.90;;;;;;5016733;28;20029;-60
2023/04/20 04:33:26;;;;;;;18.17;13.27;;;1.30;99.90;;;;;;5002063;28;20048;-60
2023/04/20 04:35:52;;;;;;;14.68;12.63;;;1.30;99.90;;;;;;5001811;28;20023;-59
2023/04/20 04:38:18;;;;;;;15.80;12.85;;;1.30;99.90;;;;;;4999984;28;20033;-60
2023/04/20 04:40:46;;;;;;;17.92;12.25;;;1.30;99.90;;;;;;4998499;28;20018;-62
2023/04/20 04:43:12;;;;;;;20.13;15.50;;;1.30;99.90;;;;;;4998519;28;20039;-60
2023/04/20 04:45:39;;;;;;;17.92;15.43;;;1.40;99.90;;;;;;5001426;28;20033;-62
2023/04/20 04:48:05;;;;;;;16.35;14.63;;;1.40;99.90;;;;;;4999941;28;20036;-61
2023/04/20 04:50:31;;;;;;;19.30;13.77;;;1.40;99.90;;;;;;4999812;28;20034;-60
2023/04/20 04:52:57;;;;;;;16.00;12.75;;;1.40;99.90;;;;;;4997841;28;20114;-61
2023/04/20 04:55:22;;;;;;;17.48;14.88;;;1.50;99.90;;;;;;5000238;28;20601;-60
2023/04/20 04:57:48;;;;;;;17.23;14.68;;;1.50;99.90;;;;;;5001712;28;20036;-61
2023/04/20 05:00:14;;;;;;;23.67;18.15;;;1.60;99.90;;;;;;4995595;28;20030;-59
2023/04/20 05:02:40;;;;;;;21.27;15.25;;;1.70;99.90;;;;;;5005646;28;20035;-63
2023/04/20 05:05:07;;;;;;;14.57;12.27;;;1.70;99.90;;;;;;4999879;28;20414;-60
2023/04/20 05:07:33;;;;;;;13.68;12.13;;;1.70;99.90;;;;;;4998301;28;20037;-62
2023/04/20 05:09:58;;;;;;;15.20;11.95;;;1.70;99.90;;;;;;5001558;28;20439;-61
2023/04/20 05:12:24;;;;;;;15.93;12.07;;;1.70;99.90;;;;;;4999502;28;20550;-60
2023/04/20 05:14:51;;;;;;;14.95;11.90;;;1.70;99.90;;;;;;4997900;28;20585;-59
2023/04/20 05:17:16;;;;;;;14.13;12.63;;;1.80;99.90;;;;;;5001407;28;20037;-62
2023/04/20 05:19:42;;;;;;;17.35;14.20;;;1.90;99.90;;;;;;4996951;28;20030;-60
2023/04/20 05:22:08;;;;;;;15.35;13.85;;;2.00;99.90;;;;;;5000315;28;20849;-60
2023/04/20 05:24:34;;;;;;;17.88;15.05;;;2.10;99.90;;;;;;5000098;28;20034;-63
2023/04/20 05:27:00;;;;;;;17.27;14.32;;;2.20;99.90;;;;;;4996333;28;20092;-60
2023/04/20 05:29:26;;;;;;;16.80;14.40;;;2.30;99.90;;;;;;5000265;28;20054;-59
2023/04/20 05:31:51;;;;;;;15.05;13.32;;;2.40;99.90;;;;;;5001751;28;20049;-61
2023/04/20 05:34:17;;;;;;;16.00;13.18;;;2.50;99.90;;;;;;4999801;28;20065;-60
2023/04/20 05:36:42;;;;;;;15.50;13.32;;;2.60;99.90;;;;;;4999163;28;20501;-62
2023/04/20 05:39:09;;;;;;;15.77;14.20;;;2.70;99.90;;;;;;4998031;28;20045;-59
2023/04/20 05:41:34;;;;;;;13.80;12.43;;;2.80;99.90;;;;;;5000240;28;20146;-61
2023/04/20 05:44:00;;;;;;;15.95;14.35;;;2.90;99.90;;;;;;4996543;28;20117;-60
2023/04/20 05:46:27;;;;;;;15.70;13.63;;;3.00;99.90;;;;;;4996925;28;20046;-63
2023/04/20 05:48:53;;;;;;;16.00;14.18;;;3.00;99.90;;;;;;4995090;28;20038;-61
2023/04/20 05:51:20;;;;;;;19.05;13.32;;;3.10;99.90;;;;;;4996790;28;20040;-59
2023/04/20 05:53:46;;;;;;;15.50;13.68;;;3.20;99.90;;;;;;4993445;28;20034;-64
2023/04/20 05:56:13;;;;;;;13.88;12.50;;;3.20;99.90;;;;;;4998809;28;20022;-59
2023/04/20 05:58:39;;;;;;;15.02;12.15;;;3.30;99.90;;;;;;5000096;28;20032;-61
2023/04/20 06:01:06;;;;;;;14.45;12.93;;;3.40;99.90;;;;;;4997565;28;20029;-60
2023/04/20 06:03:32;;;;;;;14.38;12.85;;;3.50;99.90;;;;;;5006524;28;20034;-61
2023/04/20 06:05:57;;;;;;;13.40;12.10;;;3.60;99.90;;;;;;4996668;28;20113;-62
2023/04/20 06:08:23;;;;;;;14.40;12.90;;;3.70;99.90;;;;;;4997814;28;20158;-62
2023/04/20 06:10:53;;;;;;;12.63;11.43;;;3.80;99.90;;;;;;5005759;28;20914;-63
2023/04/20 06:13:19;;;;;;;13.70;12.25;;;3.90;99.90;;;;;;5014984;28;20029;-62
2023/04/20 06:15:45;;;;;;;11.55;10.43;;;4.00;99.90;;;;;;4998665;28;20179;-62
2023/04/20 06:18:10;;;;;;;11.43;10.43;;;4.10;99.90;;;;;;4997826;28;20395;-62
2023/04/20 06:20:38;;;;;;;10.85;9.75;;;4.20;99.90;;;;;;4996903;28;20387;-61
2023/04/20 06:23:03;;;;;;;10.18;9.27;;;4.40;99.90;;;;;;4998894;28;20036;-62
2023/04/20 06:25:29;;;;;;;10.43;9.48;;;4.50;99.90;;;;;;4993786;28;20030;-61
2023/04/20 06:27:55;;;;;;;9.73;8.82;;;4.60;99.90;;;;;;4995055;28;20026;-60
2023/04/20 06:30:21;;;;;;;9.90;9.10;;;4.70;99.90;;;;;;4994207;28;20031;-59
2023/04/20 06:32:47;;;;;;;9.15;8.35;;;4.80;99.90;;;;;;4995963;28;20114;-59
2023/04/20 06:35:12;;;;;;;9.65;8.70;;;4.90;99.90;;;;;;4998191;28;20034;-59
2023/04/20 06:37:39;;;;;;;8.57;7.78;;;5.00;99.90;;;;;;5000929;28;20030;-61
2023/04/20 06:40:08;;;;;;;9.15;8.25;;;5.10;99.90;;;;;;4999246;28;20034;-62
2023/04/20 06:42:34;;;;;;;8.15;7.43;;;5.30;99.90;;;;;;5000417;28;20037;-62
2023/04/20 06:44:59;;;;;;;8.25;6.82;;;5.40;99.90;;;;;;4999469;28;20033;-61
2023/04/20 06:47:32;;;;;;;7.57;6.78;;;5.50;99.90;;;;;;5000840;28;20034;-62
2023/04/20 06:49:59;;;;;;;8.40;7.65;;;5.60;99.90;;;;;;5001473;28;20061;-59
2023/04/20 06:52:25;;;;;;;7.70;7.10;;;5.70;99.90;;;;;;5000806;28;20049;-61
2023/04/20 06:54:51;;;;;;;8.68;7.97;;;5.80;99.90;;;;;;4997791;28;20034;-63
2023/04/20 06:57:17;;;;;;;7.13;6.45;;;6.00;99.90;;;;;;4999310;28;20033;-62
2023/04/20 06:59:42;;;;;;;6.80;6.20;;;6.10;99.90;;;;;;4997259;28;20457;-61
2023/04/20 07:02:08;;;;;;;6.47;5.90;;;6.20;99.90;;;;;;4998133;28;20038;-61
2023/04/20 07:04:33;;;;;;;7.13;6.07;;;6.30;99.90;;;;;;4998079;28;20026;-61
2023/04/20 07:06:59;;;;;;;6.05;5.55;;;6.40;99.90;;;;;;5002043;28;20041;-62
2023/04/20 07:09:25;;;;;;;6.28;5.68;;;6.50;99.90;;;;;;5000964;28;20434;-63
2023/04/20 07:11:51;;;;;;;6.18;5.57;;;6.60;99.90;;;;;;4996595;28;20034;-61
2023/04/20 07:14:17;;;;;;;5.70;5.13;;;6.70;99.90;;;;;;5000692;28;20038;-61
2023/04/20 07:16:42;;;;;;;5.53;5.03;;;6.80;99.90;;;;;;4994994;28;20137;-62
2023/04/20 07:19:08;;;;;;;5.85;5.35;;;6.90;99.90;;;;;;5000898;28;20034;-63
2023/04/20 07:21:34;;;;;;;6.35;5.82;;;7.10;99.90;;;;;;4997892;28;20141;-62
2023/04/20 07:24:00;;;;;;;4.82;4.43;;;7.20;99.90;;;;;;4999874;28;20048;-62
2023/04/20 07:26:26;;;;;;;6.20;5.55;;;7.30;99.90;;;;;;4996074;28;20060;-63
2023/04/20 07:28:52;;;;;;;5.78;5.28;;;7.40;99.90;;;;;;5002026;28;20029;-63
2023/04/20 07:31:17;;;;;;;5.50;5.00;;;7.50;99.90;;;;;;4999076;28;20027;-61
2023/04/20 07:33:43;;;;;;;5.47;4.97;;;7.60;99.90;;;;;;4998635;28;20510;-60
2023/04/20 07:36:09;;;;;;;4.90;4.50;;;7.70;99.90;;;;;;4997227;28;20037;-62
2023/04/20 07:38:35;;;;;;;5.85;5.18;;;7.80;99.90;;;;;;4998259;28;20121;-61
2023/04/20 07:41:02;;;;;;;5.28;4.82;;;7.90;99.90;;;;;;4996978;28;20133;-62
2023/04/20 07:43:28;;;;;;;6.35;5.75;;;8.10;99.90;;;;;;4995979;28;20041;-60
2023/04/20 07:45:53;;;;;;;5.15;4.65;;;8.20;99.90;;;;;;4997172;28;20027;-60
2023/04/20 07:48:19;;;;;;;6.47;4.90;;;8.30;99.90;;;;;;4995810;28;20026;-61
2023/04/20 07:50:45;;;;;;;5.38;4.88;;;8.40;99.90;;;;;;4997202;28;20089;-63
2023/04/20 07:53:11;;;;;;;4.90;4.40;;;8.50;99.90;;;;;;4998655;28;20060;-62
2023/04/20 07:55:37;;;;;;;5.18;4.65;;;8.60;99.90;;;;;;5000231;28;20402;-61
2023/04/20 07:58:03;;;;;;;4.60;4.20;;;8.60;99.90;;;;;;4999334;28;20037;-60
2023/04/20 08:00:28;;;;;;;4.97;4.47;;;8.60;99.90;;;;;;5001810;28;20450;-60
2023/04/20 08:02:54;;;;;;;4.82;4.40;;;8.70;99.90;;;;;;4999309;28;20548;-61
2023/04/20 08:05:20;;;;;;;5.28;4.78;;;8.80;99.90;;;;;;4996725;28;20049;-60
2023/04/20 08:07:45;;;;;;;5.35;4.32;;;8.90;99.90;;;;;;5000129;28;20045;-61
2023/04/20 08:10:11;;;;;;;5.68;5.18;;;9.00;99.90;;;;;;4997351;28;20033;-61
2023/04/20 08:12:38;;;;;;;5.22;4.78;;;9.00;99.90;;;;;;5001761;28;20112;-60
2023/04/20 08:15:05;;;;;;;7.18;5.43;;;9.10;99.90;;;;;;5001052;28;20045;-63
2023/04/20 08:17:31;;;;;;;5.63;5.13;;;9.20;99.90;;;;;;4998311;28;20764;-59
2023/04/20 08:19:57;;;;;;;7.35;5.35;;;9.30;99.90;;;;;;4999920;28;20411;-60
2023/04/20 08:22:25;;;;;;;5.75;5.30;;;9.40;99.90;;;;;;5001494;28;20168;-60
2023/04/20 08:24:51;;;;;;;7.05;5.25;;;9.40;99.90;;;;;;5001615;28;20033;-62
2023/04/20 08:27:17;;;;;;;6.40;5.03;;;9.50;99.90;;;;;;5000281;28;20029;-61
2023/04/20 08:29:43;;;;;;;6.00;5.20;;;9.60;99.90;;;;;;4997286;28;20025;-60
2023/04/20 08:32:11;;;;;;;5.55;5.00;;;9.70;96.50;;;;;;5000251;28;20058;-60
2023/04/20 08:34:37;;;;;;;5.78;5.28;;;9.60;96.40;;;;;;4996188;28;20040;-62
2023/04/20 08:37:03;;;;;;;6.30;5.57;;;9.60;97.60;;;;;;4997201;28;20037;-62
2023/04/20 08:39:29;;;;;;;5.57;5.07;;;9.60;97.70;;;;;;5001144;28;20031;-64
2023/04/20 08:41:56;;;;;;;6.20;5.70;;;9.70;97.00;;;;;;5001521;28;20022;-63
2023/04/20 08:44:22;;;;;;;6.63;6.00;;;9.90;96.50;;;;;;4996789;28;20031;-60
2023/04/20 08:46:48;;;;;;;6.47;5.88;;;10.00;98.50;;;;;;5003318;28;20026;-61
2023/04/20 08:49:18;;;;;;;8.20;4.50;;;10.20;96.90;;;;;;4999442;28;20018;-60
2023/04/20 08:51:45;;;;;;;5.63;5.13;;;10.40;93.10;;;;;;5001219;28;20117;-61
2023/04/20 08:54:11;;;;;;;6.53;5.78;;;10.50;93.50;;;;;;4999908;28;20037;-64
2023/04/20 08:56:42;;;;;;;7.15;4.93;;;10.60;93.60;;;;;;5001576;28;20526;-62
2023/04/20 08:59:09;;;;;;;5.72;5.22;;;10.60;91.20;;;;;;5003743;28;20934;-60
2023/04/20 09:01:36;;;;;;;6.18;5.57;;;10.70;93.00;;;;;;5000707;28;20475;-61
2023/04/20 09:04:13;;;;;;;5.63;5.13;;;10.80;93.00;;;;;;4997876;28;20113;-61
2023/04/20 09:06:49;;;;;;;7.78;5.72;;;11.00;93.80;;;;;;5000305;28;20026;-60
2023/04/20 09:09:15;;;;;;;9.52;5.63;;;11.30;91.50;;;;;;5000257;28;20956;-61
2023/04/20 09:11:41;;;;;;;6.60;5.43;;;12.00;91.90;;;;;;5001513;28;20030;-63
2023/04/20 09:14:09;;;;;;;6.07;5.53;;;12.90;88.90;;;;;;4998746;28;20640;-61
2023/04/20 09:16:36;;;;;;;5.95;5.45;;;13.60;81.10;;;;;;5000902;28;20030;-61
2023/04/20 09:19:02;;;;;;;6.18;5.63;;;14.30;79.00;;;;;;4997404;28;20650;-62
2023/04/20 09:21:27;;;;;;;6.25;5.35;;;14.80;74.60;;;;;;4999739;28;20022;-60
2023/04/20 09:24:01;;;;;;;6.43;5.82;;;14.90;74.60;;;;;;4998456;28;20038;-61
2023/04/20 09:26:32;;;;;;;6.18;5.68;;;14.50;74.70;;;;;;5000232;28;20030;-62
2023/04/20 09:28:57;;;;;;;5.50;5.00;;;14.00;76.30;;;;;;4998290;28;20038;-60
2023/04/20 09:31:24;;;;;;;5.68;5.15;;;13.60;75.30;;;;;;5000990;28;20088;-61
2023/04/20 09:34:01;;;;;;;6.60;6.00;;;13.20;76.40;;;;;;5000498;28;20030;-61
2023/04/20 09:36:57;;;;;;;8.25;5.85;;;12.60;78.40;;;;;;5000444;28;20161;-61
2023/04/20 09:39:23;;;;;;;6.05;5.50;;;12.20;80.40;;;;;;4997170;28;20026;-63
2023/04/20 09:41:51;;;;;;;6.05;5.45;;;11.90;83.10;;;;;;4996274;28;20034;-60
2023/04/20 09:44:17;;;;;;;5.88;5.38;;;11.80;84.10;;;;;;4995898;28;20022;-61
2023/04/20 09:46:44;;;;;;;5.78;5.38;;;11.80;85.60;;;;;;4996512;28;20532;-63
2023/04/20 09:49:11;;;;;;;6.43;5.82;;;12.00;84.80;;;;;;4997548;28;20030;-61
2023/04/20 09:51:40;;;;;;;5.57;5.10;;;12.00;85.10;;;;;;4996537;28;20030;-59
2023/04/20 09:54:07;;;;;;;5.20;4.70;;;11.90;84.90;;;;;;4994028;28;20474;-61
2023/04/20 09:56:34;;;;;;;5.78;5.28;;;11.70;85.90;;;;;;4997489;28;20377;-60
2023/04/20 09:59:01;;;;;;;6.10;5.57;;;11.60;86.40;;;;;;4994888;28;20033;-60
2023/04/20 10:01:30;;;;;;;6.05;5.45;;;11.30;87.80;;;;;;4998171;28;20030;-60
2023/04/20 10:03:58;;;;;;;6.55;5.95;;;11.10;87.80;;;;;;4997719;28;20049;-62
2023/04/20 10:06:29;;;;;;;5.90;5.40;;;10.80;88.70;;;;;;4995696;28;20045;-61
2023/04/20 10:08:55;;;;;;;;;;;10.70;90.30;;;;;;4996133;28;20030;-64
2023/04/20 10:11:36;;;;;;;6.25;5.75;;;10.40;90.30;;;;;;4995696;28;20397;-60
2023/04/20 10:14:23;;;;;;;6.47;5.95;;;10.40;91.60;;;;;;4995428;28;20099;-61
2023/04/20 10:16:59;;;;;;;6.30;5.70;;;10.30;91.10;;;;;;4998434;28;20433;-63
2023/04/20 10:19:39;;;;;;;7.30;6.65;;;10.50;91.90;;;;;;4997825;28;20496;-60
2023/04/20 10:22:06;;;;;;;6.85;6.03;;;10.60;91.10;;;;;;4985879;28;20121;-63
2023/04/20 10:24:31;;;;;;;7.03;6.45;;;10.70;91.20;;;;;;4998582;28;20026;-63
2023/04/20 10:26:57;;;;;;;6.60;6.10;;;10.90;91.10;;;;;;4998014;28;20072;-62
2023/04/20 10:29:24;;;;;;;7.13;6.53;;;11.10;90.80;;;;;;4997035;28;20034;-60
2023/04/20 10:31:50;;;;;;;6.85;6.30;;;11.20;90.40;;;;;;5001696;28;20053;-61
2023/04/20 10:34:18;;;;;;;7.55;6.85;;;11.30;88.90;;;;;;4994729;28;20026;-63
2023/04/20 10:36:43;;;;;;;8.40;7.70;;;11.40;88.00;;;;;;5005054;28;20022;-61
2023/04/20 10:39:17;;;;;;;7.13;6.60;;;11.60;88.40;;;;;;4993914;28;20820;-63
2023/04/20 10:41:53;;;;;;;6.88;6.28;;;11.90;89.40;;;;;;4994885;28;20445;-63
2023/04/20 10:44:20;;;;;;;7.93;7.05;;;12.20;88.40;;;;;;5000350;28;20075;-62
2023/04/20 10:46:50;;;;;;;6.93;6.43;;;12.40;86.20;;;;;;4996586;28;20033;-61
2023/04/20 10:49:17;;;;;;;6.68;6.13;;;12.60;84.80;;;;;;4996877;28;20034;-63
2023/04/20 10:51:47;;;;;;;7.18;6.68;;;12.70;85.10;;;;;;4998399;28;20058;-62
2023/04/20 10:54:12;;;;;;;6.85;6.20;;;12.80;83.60;;;;;;4999811;28;20092;-60
2023/04/20 10:56:45;;;;;;;6.88;6.35;;;12.70;82.90;;;;;;4999353;28;20018;-65
2023/04/20 10:59:16;;;;;;;8.25;7.53;;;12.60;83.00;;;;;;4992811;28;20104;-60
2023/04/20 11:01:43;;;;;;;8.02;7.43;;;12.60;85.20;;;;;;4998379;28;20022;-64
2023/04/20 11:04:10;;;;;;;8.25;7.35;;;12.30;83.20;;;;;;4993552;28;20041;-62
2023/04/20 11:06:38;;;;;;;7.55;6.95;;;12.20;84.20;;;;;;4995396;28;20038;-60
2023/04/20 11:09:15;;;;;;;7.10;6.50;;;12.00;86.00;;;;;;5003768;28;20026;-62
2023/04/20 11:11:41;;;;;;;7.90;7.20;;;11.90;86.00;;;;;;5012775;28;20047;-62
2023/04/20 11:14:08;;;;;;;7.80;7.00;;;11.90;87.20;;;;;;4998410;28;20058;-60
2023/04/20 11:16:35;;;;;;;7.75;7.05;;;11.80;85.90;;;;;;4998916;28;20028;-59
2023/04/20 11:19:02;;;;;;;7.50;6.82;;;11.90;89.20;;;;;;4995752;28;20042;-64
2023/04/20 11:21:41;;;;;;;7.90;7.05;;;12.20;90.20;;;;;;4997670;28;20832;-60
2023/04/20 11:24:26;;;;;;;6.43;5.78;;;12.60;88.50;;;;;;4997193;28;20035;-62
2023/04/20 11:26:53;;;;;;;6.75;6.15;;;12.90;86.50;;;;;;5002919;28;20026;-62
2023/04/20 11:29:35;;;;;;;6.53;5.95;;;13.20;84.10;;;;;;5005186;28;20165;-63
2023/04/20 11:32:06;;;;;;;6.00;5.40;;;13.40;82.20;;;;;;5003293;28;20092;-61
2023/04/20 11:34:33;;;;;;;6.30;5.80;;;13.40;82.40;;;;;;5002383;28;20089;-61
2023/04/20 11:37:05;;;;;;;5.78;5.28;;;13.20;80.00;;;;;;5001826;28;20102;-60
2023/04/20 11:39:32;;;;;;;6.85;6.28;;;12.80;81.20;;;;;;5003892;28;20109;-62
2023/04/20 11:41:58;;;;;;;7.10;6.50;;;12.50;84.10;;;;;;5001377;28;20030;-63
2023/04/20 11:44:24;;;;;;;7.68;6.97;;;12.30;86.10;;;;;;5003931;28;20022;-60
2023/04/20 11:46:56;;;;;;;6.80;6.20;;;12.00;84.80;;;;;;5002723;28;20030;-60
2023/04/20 11:49:25;;;;;;;;;;;12.00;85.50;;;;;;5002514;28;20026;-63
2023/04/20 11:51:51;;;;;;;6.82;6.32;;;12.00;84.90;;;;;;5001184;28;19991;-61
2023/04/20 11:54:20;;;;;;;7.38;6.68;;;12.00;86.60;;;;;;5001414;28;20468;-62
2023/04/20 11:56:47;;;;;;;6.50;6.00;;;12.10;84.10;;;;;;4997965;28;20034;-61
2023/04/20 11:59:18;;;;;;;6.18;5.68;;;12.10;89.00;;;;;;5000417;28;20110;-63
2023/04/20 12:01:44;;;;;;;6.25;5.75;;;12.20;87.30;;;;;;4997964;28;20494;-60
2023/04/20 12:04:10;;;;;;;5.90;5.40;;;12.40;86.40;;;;;;5003628;28;20034;-61
2023/04/20 12:06:36;;;;;;;5.53;5.03;;;12.60;86.30;;;;;;5005146;28;20040;-61
2023/04/20 12:09:01;;;;;;;5.43;4.93;;;12.70;87.10;;;;;;5004510;28;20042;-61
2023/04/20 12:11:27;;;;;;;4.88;4.47;;;12.80;86.10;;;;;;5001668;28;20137;-62
2023/04/20 12:13:53;;;;;;;9.75;5.18;;;12.90;85.40;;;;;;5001106;28;20504;-63
2023/04/20 12:16:19;;;;;;;4.07;3.67;;;12.90;84.20;;;;;;5001701;28;20073;-63
2023/04/20 12:18:45;;;;;;;4.53;4.13;;;13.00;82.60;;;;;;5001686;28;20034;-63
2023/04/20 12:21:10;;;;;;;4.25;3.65;;;12.80;81.60;;;;;;5001167;28;20046;-59
2023/04/20 12:23:36;;;;;;;4.05;3.63;;;12.80;83.20;;;;;;4999267;28;20028;-60
2023/04/20 12:26:05;;;;;;;10.98;4.00;;;12.70;84.60;;;;;;5000111;28;20122;-61
2023/04/20 12:28:32;;;;;;;5.47;3.63;;;12.70;83.40;;;;;;5000704;28;20048;-60
2023/04/20 12:30:57;;;;;;;6.53;4.05;;;12.50;83.20;;;;;;5003478;28;20046;-63
2023/04/20 12:33:23;;;;;;;4.47;3.95;;;12.50;84.70;;;;;;4999742;28;20640;-60
2023/04/20 12:35:49;;;;;;;4.55;4.15;;;12.40;87.50;;;;;;5000878;28;20449;-60
2023/04/20 12:38:15;;;;;;;4.18;3.67;;;12.40;86.30;;;;;;4996566;28;20041;-60
2023/04/20 12:40:40;;;;;;;3.90;3.50;;;12.40;86.60;;;;;;5000406;28;20112;-62
2023/04/20 12:43:06;;;;;;;3.90;3.60;;;12.30;83.70;;;;;;4996819;28;20386;-63